Time;durP1;ratioP1;P1;durP2;ratioP2;P2;SDS_P1;SDS_P2;PMS_P1;PMS_P2;Temp;Humidity;BMP_temperature;BMP_pressure;BME280_temperature;BME280_humidity;BME280_pressure;Samples;Min_cycle;Max_cycle;Signal;HPM_P1;HPM_P2
2022/12/13 00:00:41;;;;;;;64.93;38.40;;;;;;;;;;5094615;28;20689;-65
2022/12/13 00:03:09;;;;;;;75.28;36.40;;;;;;;;;;5095081;28;20193;-65
2022/12/13 00:05:43;;;;;;;68.10;32.85;;;;;;;;;;5094863;28;20209;-65
2022/12/13 00:08:10;;;;;;;70.25;39.33;;;;;;;;;;5094509;28;20698;-66
2022/12/13 00:10:37;;;;;;;69.20;36.70;;;;;;;;;;5094652;28;20548;-66
2022/12/13 00:13:06;;;;;;;69.72;37.55;;;;;;;;;;5095018;28;20287;-66
2022/12/13 00:15:33;;;;;;;69.00;36.65;;;;;;;;;;5094328;28;20225;-65
2022/12/13 00:18:00;;;;;;;62.15;34.70;;;;;;;;;;5094169;28;20642;-66
2022/12/13 00:20:27;;;;;;;70.00;36.78;;;;;;;;;;5094667;28;20223;-65
2022/12/13 00:22:54;;;;;;;67.65;37.97;;;;;;;;;;5094921;28;20201;-66
2022/12/13 00:25:22;;;;;;;77.70;36.58;;;;;;;;;;5095090;28;20197;-67
2022/12/13 00:27:49;;;;;;;66.68;36.15;;;;;;;;;;5094301;28;20560;-67
2022/12/13 00:30:17;;;;;;;73.60;36.72;;;;;;;;;;5094376;28;20228;-66
2022/12/13 00:32:45;;;;;;;62.33;35.75;;;;;;;;;;5093849;28;20302;-67
2022/12/13 00:35:12;;;;;;;69.90;35.50;;;;;;;;;;5094262;28;20193;-66
2022/12/13 00:37:39;;;;;;;75.97;35.50;;;;;;;;;;5094157;28;20241;-67
2022/12/13 00:40:07;;;;;;;68.60;34.47;;;;;;;;;;5094559;28;20315;-65
2022/12/13 00:42:35;;;;;;;75.13;39.85;;;;;;;;;;5093693;28;20227;-66
2022/12/13 00:45:02;;;;;;;66.13;36.65;;;;;;;;;;5094249;28;20247;-67
2022/12/13 00:47:31;;;;;;;86.90;38.47;;;;;;;;;;5094039;28;20197;-66
2022/12/13 00:49:58;;;;;;;74.70;37.45;;;;;;;;;;5094031;28;20201;-66
2022/12/13 00:52:26;;;;;;;85.90;41.15;;;;;;;;;;5093388;28;20200;-66
2022/12/13 00:54:53;;;;;;;89.57;42.75;;;;;;;;;;5080487;28;20559;-65
2022/12/13 00:57:20;;;;;;;95.45;40.53;;;;;;;;;;5073498;28;20655;-66
2022/12/13 00:59:47;;;;;;;91.32;45.78;;;;;;;;;;5073537;28;20214;-66
2022/12/13 01:02:14;;;;;;;86.55;40.05;;;;;;;;;;5073529;28;20195;-66
2022/12/13 01:04:43;;;;;;;93.20;46.53;;;;;;;;;;5073387;28;20202;-66
2022/12/13 01:07:10;;;;;;;89.45;40.78;;;;;;;;;;5073399;28;20220;-65
2022/12/13 01:09:38;;;;;;;86.32;41.88;;;;;;;;;;5073351;28;20195;-66
2022/12/13 01:12:06;;;;;;;87.07;40.72;;;;;;;;;;5073773;28;20252;-66
2022/12/13 01:14:35;;;;;;;80.75;40.42;;;;;;;;;;5072971;28;20249;-66
2022/12/13 01:17:02;;;;;;;82.65;39.67;;;;;;;;;;5073544;28;20614;-66
2022/12/13 01:19:29;;;;;;;75.57;37.72;;;;;;;;;;5073214;28;20198;-66
2022/12/13 01:21:58;;;;;;;81.75;39.08;;;;;;;;;;5072977;28;20198;-66
2022/12/13 01:24:25;;;;;;;84.13;37.10;;;;;;;;;;5073425;28;20190;-67
2022/12/13 01:26:53;;;;;;;64.65;33.72;;;;;;;;;;5073323;28;20565;-65
2022/12/13 01:29:21;;;;;;;76.28;37.88;;;;;;;;;;5072878;28;20199;-66
2022/12/13 01:31:49;;;;;;;70.43;36.55;;;;;;;;;;5073158;28;20607;-66
2022/12/13 01:34:16;;;;;;;69.40;37.95;;;;;;;;;;5073088;28;20196;-66
2022/12/13 01:36:44;;;;;;;82.70;40.25;;;;;;;;;;5072768;28;20656;-66
2022/12/13 01:39:14;;;;;;;74.53;38.65;;;;;;;;;;5073409;28;20199;-66
2022/12/13 01:41:42;;;;;;;81.63;39.70;;;;;;;;;;5073080;28;20230;-66
2022/12/13 01:44:24;;;;;;;73.53;40.13;;;;;;;;;;5073317;28;20552;-66
2022/12/13 01:46:51;;;;;;;71.05;40.40;;;;;;;;;;5072799;28;20208;-66
2022/12/13 01:49:19;;;;;;;79.07;40.40;;;;;;;;;;5072602;28;20204;-66
2022/12/13 01:51:48;;;;;;;82.63;40.88;;;;;;;;;;5072713;28;20209;-66
2022/12/13 01:54:18;;;;;;;80.07;40.08;;;;;;;;;;5072924;28;20200;-66
2022/12/13 01:56:47;;;;;;;86.05;41.47;;;;;;;;;;5073193;28;20277;-66
2022/12/13 01:59:15;;;;;;;85.32;40.70;;;;;;;;;;5072565;28;20198;-66
2022/12/13 02:01:43;;;;;;;101.80;39.75;;;;;;;;;;5072575;28;20218;-66
2022/12/13 02:04:10;;;;;;;102.78;38.55;;;;;;;;;;5072781;28;20198;-66
2022/12/13 02:06:39;;;;;;;77.93;36.22;;;;;;;;;;5075758;28;20202;-66
2022/12/13 02:09:07;;;;;;;67.95;33.47;;;;;;;;;;5076925;28;20194;-66
2022/12/13 02:11:37;;;;;;;77.40;34.83;;;;;;;;;;5076660;28;20198;-66
2022/12/13 02:14:05;;;;;;;70.75;32.45;;;;;;;;;;5076902;28;20208;-68
2022/12/13 02:16:37;;;;;;;72.40;35.33;;;;;;;;;;5077146;28;20202;-66
2022/12/13 02:19:14;;;;;;;68.10;32.40;;;;;;;;;;5076324;28;20186;-66
2022/12/13 02:21:45;;;;;;;53.22;31.25;;;;;;;;;;5076611;28;20226;-66
2022/12/13 02:24:33;;;;;;;66.68;33.65;;;;;;;;;;5076299;28;20754;-65
2022/12/13 02:27:14;;;;;;;71.20;31.98;;;;;;;;;;5077080;28;20188;-65
2022/12/13 02:29:58;;;;;;;51.13;29.23;;;;;;;;;;5076638;28;20269;-66
2022/12/13 02:32:30;;;;;;;83.53;32.60;;;;;;;;;;5076125;28;20182;-66
2022/12/13 02:35:01;;;;;;;62.35;28.95;;;;;;;;;;5076550;28;20541;-66
2022/12/13 02:37:33;;;;;;;57.92;28.75;;;;;;;;;;5076060;28;20224;-66
2022/12/13 02:40:02;;;;;;;65.10;30.13;;;;;;;;;;5075771;28;20193;-66
2022/12/13 02:42:32;;;;;;;61.63;30.10;;;;;;;;;;5075890;28;20228;-66
2022/12/13 02:45:03;;;;;;;60.20;31.90;;;;;;;;;;5075732;28;20205;-66
2022/12/13 02:47:32;;;;;;;53.60;30.15;;;;;;;;;;5076333;28;20183;-66
2022/12/13 02:50:00;;;;;;;50.47;28.80;;;;;;;;;;5075711;28;20202;-65
2022/12/13 02:52:29;;;;;;;49.72;27.50;;;;;;;;;;5076090;28;20558;-66
2022/12/13 02:54:57;;;;;;;48.92;27.80;;;;;;;;;;5075836;28;20190;-66
2022/12/13 02:57:29;;;;;;;49.00;28.60;;;;;;;;;;5075658;28;20600;-65
2022/12/13 02:59:57;;;;;;;49.53;29.05;;;;;;;;;;5075447;28;20198;-66
2022/12/13 03:02:27;;;;;;;49.75;26.58;;;;;;;;;;5076055;28;20217;-66
2022/12/13 03:07:51;;;;;;;58.20;27.48;;;;;;;;;;5075673;28;20181;-66
2022/12/13 03:10:21;;;;;;;54.70;29.20;;;;;;;;;;5075505;28;20202;-66
2022/12/13 03:15:40;;;;;;;51.15;28.50;;;;;;;;;;5075100;28;20189;-66
2022/12/13 03:18:14;;;;;;;56.42;29.73;;;;;;;;;;5075601;28;20624;-65
2022/12/13 03:20:46;;;;;;;54.13;30.25;;;;;;;;;;5075647;28;20210;-65
2022/12/13 03:23:13;;;;;;;57.38;29.65;;;;;;;;;;5075581;28;20182;-65
2022/12/13 03:25:41;;;;;;;47.05;27.27;;;;;;;;;;5075279;28;20204;-65
2022/12/13 03:28:08;;;;;;;42.75;25.98;;;;;;;;;;5075035;28;20644;-65
2022/12/13 03:30:35;;;;;;;58.10;27.63;;;;;;;;;;5074869;28;20194;-65
2022/12/13 03:33:02;;;;;;;57.33;28.17;;;;;;;;;;5075313;28;20564;-65
2022/12/13 03:35:30;;;;;;;52.83;27.20;;;;;;;;;;5075190;28;20557;-66
2022/12/13 03:38:00;;;;;;;48.40;27.45;;;;;;;;;;5075279;28;20559;-66
2022/12/13 03:40:28;;;;;;;50.67;28.33;;;;;;;;;;5075069;28;20194;-66
2022/12/13 03:42:56;;;;;;;52.67;27.85;;;;;;;;;;5075254;28;20226;-65
2022/12/13 03:45:23;;;;;;;59.63;31.45;;;;;;;;;;5074889;28;20198;-65
2022/12/13 03:47:50;;;;;;;51.97;29.92;;;;;;;;;;5074977;28;20194;-66
2022/12/13 03:50:17;;;;;;;53.63;28.67;;;;;;;;;;5074862;28;20627;-66
2022/12/13 03:52:46;;;;;;;44.67;26.35;;;;;;;;;;5075389;28;20281;-65
2022/12/13 03:55:14;;;;;;;47.55;28.42;;;;;;;;;;5074717;28;20244;-66
2022/12/13 03:57:42;;;;;;;50.33;28.48;;;;;;;;;;5075062;28;20205;-66
2022/12/13 04:00:09;;;;;;;47.35;27.42;;;;;;;;;;5074603;28;20194;-66
2022/12/13 04:02:37;;;;;;;47.83;26.40;;;;;;;;;;5074683;28;20217;-66
2022/12/13 04:05:04;;;;;;;47.20;28.30;;;;;;;;;;5074589;28;20201;-66
2022/12/13 04:07:31;;;;;;;44.50;25.35;;;;;;;;;;5074293;28;20290;-65
2022/12/13 04:09:58;;;;;;;44.22;26.13;;;;;;;;;;5074417;28;20194;-65
2022/12/13 04:15:11;;;;;;;42.42;25.27;;;;;;;;;;5074412;28;20177;-66
2022/12/13 04:17:39;;;;;;;40.53;25.42;;;;;;;;;;5074580;28;20559;-66
2022/12/13 04:20:06;;;;;;;51.13;26.10;;;;;;;;;;5074786;28;20198;-66
2022/12/13 04:22:33;;;;;;;46.38;25.58;;;;;;;;;;5074048;28;20305;-65
2022/12/13 04:25:01;;;;;;;45.35;25.23;;;;;;;;;;5073840;28;20190;-65
2022/12/13 04:27:29;;;;;;;45.42;26.63;;;;;;;;;;5073204;28;20208;-65
2022/12/13 04:29:56;;;;;;;40.38;25.50;;;;;;;;;;5074114;28;20200;-65
2022/12/13 04:32:24;;;;;;;51.00;27.73;;;;;;;;;;5073810;28;20204;-66
2022/12/13 04:34:51;;;;;;;49.13;26.67;;;;;;;;;;5074052;28;20214;-66
2022/12/13 04:37:18;;;;;;;49.53;25.58;;;;;;;;;;5073947;28;20194;-65
2022/12/13 04:39:45;;;;;;;47.30;25.65;;;;;;;;;;5073785;28;20194;-65
2022/12/13 04:42:12;;;;;;;46.45;26.60;;;;;;;;;;5073520;28;20234;-65
2022/12/13 04:44:41;;;;;;;47.92;25.58;;;;;;;;;;5074053;28;20186;-65
2022/12/13 04:47:08;;;;;;;50.50;28.30;;;;;;;;;;5073633;28;20196;-65
2022/12/13 04:49:35;;;;;;;47.78;27.02;;;;;;;;;;5073386;28;20201;-66
2022/12/13 04:52:03;;;;;;;47.42;24.02;;;;;;;;;;5073864;28;20677;-65
2022/12/13 04:54:31;;;;;;;43.15;26.00;;;;;;;;;;5073585;28;20198;-66
2022/12/13 04:56:58;;;;;;;40.10;22.50;;;;;;;;;;5079627;28;20232;-65
2022/12/13 04:59:25;;;;;;;47.58;26.23;;;;;;;;;;5092245;28;20200;-65
2022/12/13 05:01:54;;;;;;;44.63;26.92;;;;;;;;;;5092296;28;20222;-65
2022/12/13 05:04:21;;;;;;;42.22;24.65;;;;;;;;;;5092386;28;20658;-65
2022/12/13 05:06:48;;;;;;;47.20;25.95;;;;;;;;;;5092927;28;20198;-65
2022/12/13 05:09:15;;;;;;;44.05;22.65;;;;;;;;;;5092467;28;20202;-65
2022/12/13 05:11:43;;;;;;;39.90;23.45;;;;;;;;;;5092479;28;20202;-65
2022/12/13 05:14:10;;;;;;;48.55;23.80;;;;;;;;;;5092776;28;20216;-65
2022/12/13 05:16:37;;;;;;;45.33;24.52;;;;;;;;;;5092801;28;20189;-64
2022/12/13 05:19:05;;;;;;;51.90;27.30;;;;;;;;;;5092202;28;20206;-65
2022/12/13 05:21:33;;;;;;;49.85;25.30;;;;;;;;;;5092877;28;20210;-66
2022/12/13 05:24:01;;;;;;;73.32;27.15;;;;;;;;;;5092670;28;20556;-64
2022/12/13 05:26:28;;;;;;;37.15;21.75;;;;;;;;;;5092265;28;20272;-65
2022/12/13 05:28:56;;;;;;;39.10;23.15;;;;;;;;;;5092800;28;20197;-65
2022/12/13 05:31:23;;;;;;;40.50;23.77;;;;;;;;;;5093115;28;20201;-65
2022/12/13 05:33:50;;;;;;;49.00;26.35;;;;;;;;;;5093195;28;20204;-65
2022/12/13 05:36:21;;;;;;;48.10;24.65;;;;;;;;;;5093287;28;20216;-65
2022/12/13 05:38:48;;;;;;;48.83;25.50;;;;;;;;;;5093004;28;20189;-65
2022/12/13 05:41:17;;;;;;;47.58;26.77;;;;;;;;;;5093402;28;20221;-65
2022/12/13 05:43:44;;;;;;;52.65;28.42;;;;;;;;;;5092769;28;20320;-65
2022/12/13 05:46:12;;;;;;;44.13;28.05;;;;;;;;;;5092486;28;20196;-65
2022/12/13 05:48:39;;;;;;;47.15;27.05;;;;;;;;;;5092429;28;20284;-66
2022/12/13 05:51:07;;;;;;;54.72;29.52;;;;;;;;;;5092692;28;20650;-65
2022/12/13 05:53:35;;;;;;;53.85;29.58;;;;;;;;;;5093195;28;20299;-65
2022/12/13 05:56:03;;;;;;;61.00;30.30;;;;;;;;;;5092588;28;20193;-64
2022/12/13 05:58:30;;;;;;;62.42;30.48;;;;;;;;;;5052797;28;20220;-65
2022/12/13 06:01:04;;;;;;;54.03;30.10;;;;;;;;;;5052764;28;20224;-64
2022/12/13 06:03:31;;;;;;;55.13;29.35;;;;;;;;;;5052982;28;20178;-64
2022/12/13 06:06:01;;;;;;;59.50;28.50;;;;;;;;;;5052956;28;20195;-65
2022/12/13 06:08:28;;;;;;;59.10;31.33;;;;;;;;;;5052589;28;20232;-69
2022/12/13 06:10:57;;;;;;;59.13;29.63;;;;;;;;;;5052717;28;20201;-64
2022/12/13 06:13:24;;;;;;;52.40;29.88;;;;;;;;;;5052545;28;20195;-64
2022/12/13 06:15:51;;;;;;;68.07;31.27;;;;;;;;;;5052290;28;20652;-64
2022/12/13 06:18:25;;;;;;;54.97;30.02;;;;;;;;;;5052224;28;20755;-64
2022/12/13 06:20:57;;;;;;;53.67;29.85;;;;;;;;;;5052631;28;20226;-64
2022/12/13 06:23:24;;;;;;;50.97;28.80;;;;;;;;;;5052711;28;20209;-65
2022/12/13 06:25:51;;;;;;;56.25;31.02;;;;;;;;;;5052280;28;20207;-64
2022/12/13 06:28:20;;;;;;;63.78;32.50;;;;;;;;;;5052676;28;20245;-64
2022/12/13 06:30:51;;;;;;;56.05;30.23;;;;;;;;;;5052642;28;20289;-65
2022/12/13 06:33:18;;;;;;;58.50;28.92;;;;;;;;;;5052470;28;20187;-64
2022/12/13 06:35:45;;;;;;;55.72;30.50;;;;;;;;;;5052478;28;20285;-64
2022/12/13 06:38:13;;;;;;;55.38;32.25;;;;;;;;;;5052083;28;20203;-65
2022/12/13 06:40:41;;;;;;;68.43;32.85;;;;;;;;;;5052347;28;20191;-65
2022/12/13 06:43:08;;;;;;;63.40;32.80;;;;;;;;;;5052429;28;20266;-65
2022/12/13 06:45:39;;;;;;;64.45;31.90;;;;;;;;;;5051990;28;20230;-65
2022/12/13 06:48:06;;;;;;;66.55;32.38;;;;;;;;;;5052944;28;20183;-65
2022/12/13 06:50:33;;;;;;;56.53;32.53;;;;;;;;;;5052337;28;20214;-65
2022/12/13 06:53:00;;;;;;;62.50;32.20;;;;;;;;;;5055414;28;20205;-64
2022/12/13 06:55:28;;;;;;;60.85;31.10;;;;;;;;;;5055932;28;20528;-65
2022/12/13 06:57:55;;;;;;;51.47;29.52;;;;;;;;;;5056196;28;20198;-65
2022/12/13 07:00:22;;;;;;;67.10;33.35;;;;;;;;;;5055880;28;20289;-65
2022/12/13 07:02:53;;;;;;;59.65;30.67;;;;;;;;;;5055539;28;20219;-64
2022/12/13 07:05:21;;;;;;;57.03;32.40;;;;;;;;;;5055595;28;20183;-65
2022/12/13 07:07:48;;;;;;;70.18;31.55;;;;;;;;;;5055473;28;20194;-65
2022/12/13 07:10:15;;;;;;;50.40;29.88;;;;;;;;;;5055512;28;20604;-64
2022/12/13 07:12:42;;;;;;;60.63;31.58;;;;;;;;;;5055730;28;20198;-64
2022/12/13 07:15:10;;;;;;;67.15;32.08;;;;;;;;;;5055135;28;20286;-65
2022/12/13 07:17:37;;;;;;;70.53;33.67;;;;;;;;;;5055690;28;20201;-65
2022/12/13 07:20:08;;;;;;;61.58;35.65;;;;;;;;;;5055003;28;20751;-65
2022/12/13 07:22:35;;;;;;;56.08;33.63;;;;;;;;;;5055523;28;20298;-64
2022/12/13 07:25:03;;;;;;;64.82;32.95;;;;;;;;;;5054941;28;20198;-64
2022/12/13 07:27:31;;;;;;;64.47;33.78;;;;;;;;;;5055748;28;20635;-65
2022/12/13 07:29:58;;;;;;;61.55;32.60;;;;;;;;;;5055234;28;20194;-65
2022/12/13 07:32:25;;;;;;;62.13;31.00;;;;;;;;;;5054952;28;20203;-65
2022/12/13 07:34:52;;;;;;;59.75;33.17;;;;;;;;;;5054793;28;20194;-64
2022/12/13 07:37:21;;;;;;;63.40;34.67;;;;;;;;;;5055254;28;20289;-65
2022/12/13 07:39:48;;;;;;;65.07;32.15;;;;;;;;;;5054880;28;20660;-64
2022/12/13 07:42:16;;;;;;;53.85;31.63;;;;;;;;;;5054547;28;20233;-64
2022/12/13 07:44:44;;;;;;;67.85;34.42;;;;;;;;;;5055011;28;20664;-65
2022/12/13 07:47:11;;;;;;;62.60;29.77;;;;;;;;;;5055026;28;20194;-64
2022/12/13 07:49:39;;;;;;;66.45;32.25;;;;;;;;;;5054965;28;20289;-64
2022/12/13 07:52:10;;;;;;;64.00;30.92;;;;;;;;;;5054568;28;20195;-64
2022/12/13 07:54:39;;;;;;;54.67;30.48;;;;;;;;;;5055011;28;20587;-65
2022/12/13 07:57:06;;;;;;;69.45;33.72;;;;;;;;;;5054752;28;20195;-65
2022/12/13 07:59:33;;;;;;;68.45;35.35;;;;;;;;;;5054453;28;20667;-65
2022/12/13 08:02:00;;;;;;;75.70;36.25;;;;;;;;;;5054745;28;20223;-65
2022/12/13 08:04:28;;;;;;;65.70;34.45;;;;;;;;;;5054610;28;20195;-64
2022/12/13 08:06:55;;;;;;;54.40;32.10;;;;;;;;;;5054333;28;20195;-65
2022/12/13 08:09:23;;;;;;;57.33;33.22;;;;;;;;;;5054229;28;20198;-65
2022/12/13 08:11:51;;;;;;;66.88;34.92;;;;;;;;;;5054807;28;20195;-65
2022/12/13 08:14:19;;;;;;;66.07;32.83;;;;;;;;;;5054626;28;20222;-65
2022/12/13 08:16:46;;;;;;;69.18;35.60;;;;;;;;;;5054510;28;20195;-65
2022/12/13 08:19:13;;;;;;;62.60;35.20;;;;;;;;;;5054006;28;20282;-65
2022/12/13 08:21:41;;;;;;;60.78;33.92;;;;;;;;;;5054124;28;20680;-65
2022/12/13 08:24:09;;;;;;;71.07;34.63;;;;;;;;;;5053809;28;20195;-65
2022/12/13 08:26:36;;;;;;;56.85;31.77;;;;;;;;;;5053950;28;20205;-65
2022/12/13 08:29:05;;;;;;;66.30;36.35;;;;;;;;;;5054407;28;20286;-65
2022/12/13 08:31:32;;;;;;;65.78;33.25;;;;;;;;;;5053866;28;20195;-65
2022/12/13 08:33:59;;;;;;;59.40;33.28;;;;;;;;;;5054206;28;20206;-65
2022/12/13 08:36:27;;;;;;;53.17;30.35;;;;;;;;;;5053739;28;20198;-64
2022/12/13 08:38:55;;;;;;;56.85;29.90;;;;;;;;;;5053556;28;20203;-65
2022/12/13 08:41:23;;;;;;;57.28;31.45;;;;;;;;;;5054031;28;20198;-65
2022/12/13 08:43:50;;;;;;;60.20;31.63;;;;;;;;;;5053961;28;20241;-65
2022/12/13 08:46:18;;;;;;;55.72;29.08;;;;;;;;;;5053411;28;20653;-65
2022/12/13 08:48:46;;;;;;;55.67;29.63;;;;;;;;;;5053736;28;20199;-65
2022/12/13 08:51:14;;;;;;;51.75;30.75;;;;;;;;;;5053678;28;20198;-65
2022/12/13 08:53:41;;;;;;;55.67;30.80;;;;;;;;;;5053745;28;20199;-64
2022/12/13 08:56:11;;;;;;;58.47;29.33;;;;;;;;;;5053483;28;20198;-65
2022/12/13 08:58:38;;;;;;;51.78;32.30;;;;;;;;;;5053605;28;20273;-64
2022/12/13 09:01:06;;;;;;;47.47;29.98;;;;;;;;;;5062254;28;20194;-65
2022/12/13 09:03:35;;;;;;;66.32;32.55;;;;;;;;;;5093670;28;20229;-65
2022/12/13 09:06:07;;;;;;;52.00;28.75;;;;;;;;;;5093344;28;20197;-65
2022/12/13 09:08:34;;;;;;;52.03;29.15;;;;;;;;;;5094644;28;20181;-65
2022/12/13 09:11:01;;;;;;;58.97;32.90;;;;;;;;;;5093262;28;20257;-65
2022/12/13 09:13:29;;;;;;;52.55;30.00;;;;;;;;;;5093364;28;20321;-65
2022/12/13 09:15:57;;;;;;;49.58;28.58;;;;;;;;;;5093463;28;20193;-66
2022/12/13 09:18:25;;;;;;;51.75;28.88;;;;;;;;;;5093641;28;20269;-65
2022/12/13 09:20:53;;;;;;;57.35;30.38;;;;;;;;;;5093582;28;20197;-64
2022/12/13 09:23:20;;;;;;;49.63;29.13;;;;;;;;;;5093131;28;20253;-66
2022/12/13 09:25:54;;;;;;;52.95;28.33;;;;;;;;;;5093533;28;20205;-64
2022/12/13 09:28:22;;;;;;;56.90;29.25;;;;;;;;;;5093191;28;20205;-66
2022/12/13 09:30:50;;;;;;;60.92;32.42;;;;;;;;;;5093288;28;20194;-65
2022/12/13 09:33:17;;;;;;;57.97;32.45;;;;;;;;;;5093121;28;20194;-64
2022/12/13 09:35:45;;;;;;;64.97;33.08;;;;;;;;;;5093346;28;20284;-65
2022/12/13 09:38:14;;;;;;;54.03;32.88;;;;;;;;;;5093399;28;20235;-67
2022/12/13 09:40:44;;;;;;;54.33;33.13;;;;;;;;;;5093036;28;20635;-65
2022/12/13 09:43:13;;;;;;;61.88;31.30;;;;;;;;;;5093131;28;20693;-66
2022/12/13 09:45:41;;;;;;;57.55;32.83;;;;;;;;;;5093611;28;20280;-65
2022/12/13 09:48:08;;;;;;;56.17;34.17;;;;;;;;;;5093265;28;20515;-65
2022/12/13 09:50:36;;;;;;;60.30;32.47;;;;;;;;;;5093295;28;20193;-65
2022/12/13 09:53:05;;;;;;;52.45;32.63;;;;;;;;;;5093647;28;20292;-65
2022/12/13 09:55:38;;;;;;;61.30;30.50;;;;;;;;;;5093554;28;20224;-65
2022/12/13 09:58:07;;;;;;;61.38;34.50;;;;;;;;;;5093340;28;20186;-65
2022/12/13 10:00:35;;;;;;;47.50;31.70;;;;;;;;;;5092941;28;20650;-64
2022/12/13 10:03:03;;;;;;;61.22;32.22;;;;;;;;;;5093336;28;20209;-65
2022/12/13 10:05:31;;;;;;;54.63;30.60;;;;;;;;;;5092910;28;20194;-65
2022/12/13 10:07:59;;;;;;;50.38;31.38;;;;;;;;;;5092645;28;20204;-64
2022/12/13 10:10:27;;;;;;;62.85;31.75;;;;;;;;;;5092868;28;20193;-65
2022/12/13 10:12:59;;;;;;;51.55;31.88;;;;;;;;;;5092538;28;20193;-66
2022/12/13 10:15:26;;;;;;;56.70;30.70;;;;;;;;;;5092595;28;20189;-65
2022/12/13 10:26:45;;;;;;;60.78;30.77;;;;;;;;;;5087263;28;20535;-64
2022/12/13 10:44:24;;;;;;;55.38;29.70;;;;;;;;;;4861643;29;20724;-63
2022/12/13 11:04:31;;;;;;;53.97;26.07;;;;;;;;;;4793524;29;20278;-66
2022/12/13 12:02:13;;;;;;;;;;;;;;;;;;;;;
2022/12/13 12:07:55;;;;;;;49.20;24.55;;;;;;;;;;4974232;28;20199;-65
2022/12/13 12:10:42;;;;;;;43.90;24.95;;;;;;;;;;5057788;28;20197;-65
2022/12/13 12:13:49;;;;;;;38.10;23.80;;;;;;;;;;5094857;28;20189;-64
2022/12/13 12:16:32;;;;;;;35.25;21.83;;;;;;;;;;5077699;28;20215;-66
2022/12/13 12:19:13;;;;;;;47.22;25.25;;;;;;;;;;5094340;28;20181;-65
2022/12/13 12:22:00;;;;;;;41.65;25.42;;;;;;;;;;5094822;28;20229;-65
2022/12/13 12:24:45;;;;;;;47.50;25.10;;;;;;;;;;5093357;28;20221;-65
2022/12/13 12:58:27;;;;;;;;;;;;;;;;;;;;;
2022/12/13 13:04:31;;;;;;;;;;;;;;;;;;;;;
2022/12/13 13:07:30;;;;;;;39.83;22.60;;;;;;;;;;4961986;28;20201;-65
2022/12/13 14:11:00;;;;;;;42.90;25.05;;;;;;;;;;5018716;28;20193;-65
2022/12/13 14:14:00;;;;;;;40.97;25.25;;;;;;;;;;5097195;28;20220;-65
2022/12/13 14:16:48;;;;;;;45.40;25.35;;;;;;;;;;5097065;28;20590;-65
2022/12/13 14:19:29;;;;;;;45.17;24.10;;;;;;;;;;5089403;28;20549;-66
2022/12/13 14:22:02;;;;;;;42.90;26.20;;;;;;;;;;5080485;28;20627;-65
2022/12/13 14:24:36;;;;;;;42.10;25.30;;;;;;;;;;5095391;28;20209;-66
2022/12/13 14:27:10;;;;;;;44.85;26.80;;;;;;;;;;5095337;28;20280;-65
2022/12/13 14:29:40;;;;;;;39.13;23.55;;;;;;;;;;5095459;28;20734;-65
2022/12/13 14:32:10;;;;;;;42.08;23.60;;;;;;;;;;5095624;28;20206;-65
2022/12/13 14:34:38;;;;;;;50.10;25.58;;;;;;;;;;5095733;28;20279;-65
2022/12/13 14:37:06;;;;;;;44.85;25.60;;;;;;;;;;5095474;28;20730;-66
2022/12/13 14:39:34;;;;;;;42.95;25.13;;;;;;;;;;5095729;28;20286;-65
2022/12/13 14:42:03;;;;;;;39.53;24.30;;;;;;;;;;5095687;28;20593;-65
2022/12/13 14:44:33;;;;;;;40.53;24.27;;;;;;;;;;5095467;28;20205;-65
2022/12/13 14:47:01;;;;;;;41.53;25.73;;;;;;;;;;5096053;28;20266;-66
2022/12/13 14:49:29;;;;;;;50.83;28.63;;;;;;;;;;5095328;28;20194;-64
2022/12/13 14:52:00;;;;;;;41.65;24.38;;;;;;;;;;5095606;28;20212;-64
2022/12/13 14:54:30;;;;;;;59.15;29.02;;;;;;;;;;5095274;28;20685;-64
2022/12/13 14:56:58;;;;;;;47.60;24.55;;;;;;;;;;5096852;28;20181;-63
2022/12/13 14:59:26;;;;;;;49.67;26.63;;;;;;;;;;5096238;28;20658;-64
2022/12/13 15:02:01;;;;;;;45.80;25.17;;;;;;;;;;5095782;28;20204;-64
2022/12/13 15:04:29;;;;;;;41.53;25.67;;;;;;;;;;5096036;28;20620;-63
2022/12/13 15:06:59;;;;;;;45.88;26.73;;;;;;;;;;5095761;28;20190;-63
2022/12/13 15:09:26;;;;;;;44.97;26.10;;;;;;;;;;5095405;28;20554;-63
2022/12/13 15:11:54;;;;;;;61.22;29.48;;;;;;;;;;5094709;28;20190;-63
2022/12/13 15:15:04;;;;;;;;;;;;;;;;;;;;;
2022/12/13 15:24:11;;;;;;;;;;;;;;;;;;;;;
2022/12/13 15:26:48;;;;;;;40.63;24.98;;;;;;;;;;4953887;29;20228;-65
2022/12/13 15:36:02;;;;;;;49.45;28.67;;;;;;;;;;4938618;28;20708;-65
2022/12/13 15:38:29;;;;;;;56.67;28.25;;;;;;;;;;5078344;28;20205;-65
2022/12/13 15:40:56;;;;;;;48.58;29.42;;;;;;;;;;5094804;28;20189;-65
2022/12/13 15:43:29;;;;;;;46.60;27.10;;;;;;;;;;5094880;28;20228;-65
2022/12/13 15:45:56;;;;;;;47.42;28.20;;;;;;;;;;5095291;28;20547;-65
2022/12/13 15:48:26;;;;;;;45.15;26.70;;;;;;;;;;5095136;28;20189;-65
2022/12/13 15:51:04;;;;;;;48.20;27.02;;;;;;;;;;5094570;28;20198;-67
2022/12/13 15:53:32;;;;;;;50.42;25.52;;;;;;;;;;5094280;28;20188;-65
2022/12/13 15:56:00;;;;;;;49.50;29.17;;;;;;;;;;5094503;28;20297;-74
2022/12/13 15:58:32;;;;;;;48.40;30.02;;;;;;;;;;5094871;28;20197;-67
2022/12/13 16:01:03;;;;;;;57.75;29.95;;;;;;;;;;5094746;28;20196;-69
2022/12/13 16:03:34;;;;;;;48.40;27.08;;;;;;;;;;5094528;28;20213;-68
2022/12/13 16:06:05;;;;;;;53.80;28.92;;;;;;;;;;5094173;28;20217;-68
2022/12/13 16:08:34;;;;;;;55.38;30.88;;;;;;;;;;5094943;28;20186;-68
2022/12/13 16:11:01;;;;;;;54.10;29.55;;;;;;;;;;5094162;28;20201;-68
2022/12/13 16:13:31;;;;;;;46.42;28.10;;;;;;;;;;5094118;28;20221;-68
2022/12/13 16:15:59;;;;;;;53.05;32.10;;;;;;;;;;5094242;28;20202;-67
2022/12/13 16:18:30;;;;;;;52.72;28.45;;;;;;;;;;5094046;28;20200;-68
2022/12/13 16:20:58;;;;;;;52.40;28.00;;;;;;;;;;5093962;28;20182;-65
2022/12/13 16:23:25;;;;;;;53.25;29.42;;;;;;;;;;5093275;28;20225;-67
2022/12/13 16:25:52;;;;;;;52.92;29.48;;;;;;;;;;5093529;28;20218;-66
2022/12/13 16:28:20;;;;;;;56.00;29.30;;;;;;;;;;5094136;28;20199;-66
2022/12/13 16:30:59;;;;;;;50.83;28.40;;;;;;;;;;5094162;28;20202;-66
2022/12/13 16:33:27;;;;;;;53.58;28.63;;;;;;;;;;5093523;28;20538;-66
2022/12/13 16:35:54;;;;;;;48.60;29.45;;;;;;;;;;5093887;28;20205;-66
2022/12/13 16:38:22;;;;;;;49.58;27.80;;;;;;;;;;5094061;28;20551;-66
2022/12/13 16:40:50;;;;;;;45.60;25.15;;;;;;;;;;5094089;28;20214;-65
2022/12/13 16:43:18;;;;;;;56.25;30.27;;;;;;;;;;5093464;28;20228;-65
2022/12/13 16:45:48;;;;;;;51.95;27.27;;;;;;;;;;5094109;28;20218;-65
2022/12/13 16:48:17;;;;;;;54.25;28.23;;;;;;;;;;5094631;28;20621;-65
2022/12/13 16:50:45;;;;;;;59.90;30.15;;;;;;;;;;5092874;28;20199;-65
2022/12/13 16:53:12;;;;;;;48.20;27.75;;;;;;;;;;5093607;28;20194;-65
2022/12/13 16:55:39;;;;;;;45.35;26.23;;;;;;;;;;5093150;28;20209;-66
2022/12/13 16:58:08;;;;;;;55.78;28.40;;;;;;;;;;5093724;28;20190;-65
2022/12/13 17:00:37;;;;;;;46.13;24.90;;;;;;;;;;5093786;28;20200;-65
2022/12/13 17:03:05;;;;;;;48.47;25.95;;;;;;;;;;5093704;28;20205;-66
2022/12/13 17:05:34;;;;;;;47.30;27.42;;;;;;;;;;5093638;28;20221;-66
2022/12/13 17:08:02;;;;;;;48.08;25.23;;;;;;;;;;5093303;28;20190;-66
2022/12/13 17:10:29;;;;;;;54.15;31.45;;;;;;;;;;5093552;28;20201;-66
2022/12/13 17:12:57;;;;;;;58.35;28.35;;;;;;;;;;5093128;28;20193;-66
2022/12/13 17:15:24;;;;;;;47.15;25.95;;;;;;;;;;5093186;28;20209;-66
2022/12/13 17:17:51;;;;;;;52.95;28.23;;;;;;;;;;5093442;28;20285;-66
2022/12/13 17:20:19;;;;;;;41.85;24.70;;;;;;;;;;5093028;28;20196;-66
2022/12/13 17:22:48;;;;;;;42.22;27.92;;;;;;;;;;5093059;28;20603;-66
2022/12/13 17:25:15;;;;;;;48.10;26.48;;;;;;;;;;5093249;28;20232;-66
2022/12/13 17:27:42;;;;;;;46.08;25.63;;;;;;;;;;5093249;28;20650;-66
2022/12/13 17:30:12;;;;;;;49.47;26.90;;;;;;;;;;5092834;28;20194;-66
2022/12/13 17:32:39;;;;;;;55.83;27.15;;;;;;;;;;5092811;28;20741;-66
2022/12/13 17:35:07;;;;;;;47.10;26.90;;;;;;;;;;5091973;28;20677;-66
2022/12/13 17:37:34;;;;;;;53.88;27.20;;;;;;;;;;5093260;28;20295;-66
2022/12/13 17:40:03;;;;;;;49.35;24.35;;;;;;;;;;5092865;28;20643;-66
2022/12/13 17:42:30;;;;;;;43.10;23.63;;;;;;;;;;5093000;28;20233;-66
2022/12/13 17:44:57;;;;;;;46.03;25.13;;;;;;;;;;5092957;28;20668;-66
2022/12/13 17:47:24;;;;;;;50.10;25.92;;;;;;;;;;5092977;28;20228;-66
2022/12/13 17:49:51;;;;;;;44.00;24.42;;;;;;;;;;5092486;28;20208;-66
2022/12/13 17:52:19;;;;;;;42.70;24.00;;;;;;;;;;5092783;28;20197;-66
2022/12/13 17:54:46;;;;;;;44.72;24.20;;;;;;;;;;5092174;28;20193;-66
2022/12/13 17:57:14;;;;;;;47.92;24.90;;;;;;;;;;5092491;28;20193;-66
2022/12/13 17:59:43;;;;;;;44.15;24.63;;;;;;;;;;5092591;28;20244;-66
2022/12/13 18:02:10;;;;;;;41.60;23.90;;;;;;;;;;5092828;28;20194;-66
2022/12/13 18:04:37;;;;;;;50.53;26.20;;;;;;;;;;5092468;28;20603;-66
2022/12/13 18:07:04;;;;;;;44.03;22.77;;;;;;;;;;5092274;28;20201;-68
2022/12/13 18:09:32;;;;;;;52.15;24.25;;;;;;;;;;5092827;28;20197;-66